sensor_id;sensor_type;location;lat;lon;timestamp;P1;durP1;ratioP1;P2;durP2;ratioP2
9974;SDS011;5028;50.974;4.968;2023-02-28T00:00:48;7.07;;;4.37;;
9974;SDS011;5028;50.974;4.968;2023-02-28T00:03:18;6.23;;;4.17;;
9974;SDS011;5028;50.974;4.968;2023-02-28T00:05:53;6.90;;;4.00;;
9974;SDS011;5028;50.974;4.968;2023-02-28T00:08:21;7.73;;;4.33;;
9974;SDS011;5028;50.974;4.968;2023-02-28T00:11:00;5.37;;;4.43;;
9974;SDS011;5028;50.974;4.968;2023-02-28T00:13:29;5.40;;;3.90;;
9974;SDS011;5028;50.974;4.968;2023-02-28T00:16:05;5.87;;;4.03;;
9974;SDS011;5028;50.974;4.968;2023-02-28T00:18:38;6.17;;;3.87;;
9974;SDS011;5028;50.974;4.968;2023-02-28T00:21:14;6.37;;;4.27;;
9974;SDS011;5028;50.974;4.968;2023-02-28T00:23:43;8.20;;;4.77;;
9974;SDS011;5028;50.974;4.968;2023-02-28T00:26:24;4.87;;;4.00;;
9974;SDS011;5028;50.974;4.968;2023-02-28T00:28:53;7.93;;;5.07;;
9974;SDS011;5028;50.974;4.968;2023-02-28T00:31:27;5.97;;;4.53;;
9974;SDS011;5028;50.974;4.968;2023-02-28T00:33:58;6.07;;;4.20;;
9974;SDS011;5028;50.974;4.968;2023-02-28T00:36:33;6.00;;;4.20;;
9974;SDS011;5028;50.974;4.968;2023-02-28T00:39:01;7.87;;;4.33;;
9974;SDS011;5028;50.974;4.968;2023-02-28T00:41:36;6.73;;;4.73;;
9974;SDS011;5028;50.974;4.968;2023-02-28T00:44:04;8.43;;;4.20;;
9974;SDS011;5028;50.974;4.968;2023-02-28T00:46:40;5.63;;;4.43;;
9974;SDS011;5028;50.974;4.968;2023-02-28T00:49:09;6.83;;;5.03;;
9974;SDS011;5028;50.974;4.968;2023-02-28T00:51:44;7.67;;;4.63;;
9974;SDS011;5028;50.974;4.968;2023-02-28T00:54:12;6.17;;;4.30;;
9974;SDS011;5028;50.974;4.968;2023-02-28T00:56:47;6.23;;;4.43;;
9974;SDS011;5028;50.974;4.968;2023-02-28T00:59:16;6.30;;;4.90;;
9974;SDS011;5028;50.974;4.968;2023-02-28T01:01:52;7.37;;;4.70;;
9974;SDS011;5028;50.974;4.968;2023-02-28T01:04:22;6.73;;;4.50;;
9974;SDS011;5028;50.974;4.968;2023-02-28T01:06:58;6.43;;;4.57;;
9974;SDS011;5028;50.974;4.968;2023-02-28T01:09:26;7.13;;;5.10;;
9974;SDS011;5028;50.974;4.968;2023-02-28T01:12:01;7.53;;;4.80;;
9974;SDS011;5028;50.974;4.968;2023-02-28T01:14:29;6.83;;;4.30;;
9974;SDS011;5028;50.974;4.968;2023-02-28T01:17:05;6.17;;;4.30;;
9974;SDS011;5028;50.974;4.968;2023-02-28T01:19:36;6.20;;;4.90;;
9974;SDS011;5028;50.974;4.968;2023-02-28T01:22:11;10.90;;;4.37;;
9974;SDS011;5028;50.974;4.968;2023-02-28T01:24:45;5.40;;;4.17;;
9974;SDS011;5028;50.974;4.968;2023-02-28T01:27:21;8.23;;;4.07;;
9974;SDS011;5028;50.974;4.968;2023-02-28T01:29:50;5.97;;;4.10;;
9974;SDS011;5028;50.974;4.968;2023-02-28T01:32:25;5.97;;;4.20;;
9974;SDS011;5028;50.974;4.968;2023-02-28T01:34:54;6.53;;;4.53;;
9974;SDS011;5028;50.974;4.968;2023-02-28T01:37:30;7.83;;;4.60;;
9974;SDS011;5028;50.974;4.968;2023-02-28T01:39:59;6.50;;;4.43;;
9974;SDS011;5028;50.974;4.968;2023-02-28T01:42:34;5.60;;;4.47;;
9974;SDS011;5028;50.974;4.968;2023-02-28T01:45:04;9.43;;;4.97;;
9974;SDS011;5028;50.974;4.968;2023-02-28T01:47:52;6.13;;;4.57;;
9974;SDS011;5028;50.974;4.968;2023-02-28T01:50:28;6.67;;;5.13;;
9974;SDS011;5028;50.974;4.968;2023-02-28T01:53:06;6.83;;;4.87;;
9974;SDS011;5028;50.974;4.968;2023-02-28T01:55:37;8.37;;;5.00;;
9974;SDS011;5028;50.974;4.968;2023-02-28T01:58:14;6.37;;;4.73;;
9974;SDS011;5028;50.974;4.968;2023-02-28T02:00:43;6.63;;;4.93;;
9974;SDS011;5028;50.974;4.968;2023-02-28T02:03:19;6.53;;;4.90;;
9974;SDS011;5028;50.974;4.968;2023-02-28T02:06:04;8.13;;;4.80;;
9974;SDS011;5028;50.974;4.968;2023-02-28T02:08:40;6.57;;;5.03;;
9974;SDS011;5028;50.974;4.968;2023-02-28T02:11:08;7.57;;;4.97;;
9974;SDS011;5028;50.974;4.968;2023-02-28T02:13:50;6.53;;;4.73;;
9974;SDS011;5028;50.974;4.968;2023-02-28T02:16:29;5.70;;;4.60;;
9974;SDS011;5028;50.974;4.968;2023-02-28T02:19:16;6.80;;;4.87;;
9974;SDS011;5028;50.974;4.968;2023-02-28T02:25:28;7.20;;;5.67;;
9974;SDS011;5028;50.974;4.968;2023-02-28T02:31:28;9.17;;;5.97;;
9974;SDS011;5028;50.974;4.968;2023-02-28T02:37:28;7.17;;;5.90;;
9974;SDS011;5028;50.974;4.968;2023-02-28T02:40:04;7.30;;;5.70;;
9974;SDS011;5028;50.974;4.968;2023-02-28T02:42:50;8.07;;;6.30;;
9974;SDS011;5028;50.974;4.968;2023-02-28T02:45:31;9.13;;;6.40;;
9974;SDS011;5028;50.974;4.968;2023-02-28T02:48:03;7.40;;;5.77;;
9974;SDS011;5028;50.974;4.968;2023-02-28T02:50:43;10.43;;;5.97;;
9974;SDS011;5028;50.974;4.968;2023-02-28T02:53:17;6.97;;;5.77;;
9974;SDS011;5028;50.974;4.968;2023-02-28T02:55:56;9.33;;;5.80;;
9974;SDS011;5028;50.974;4.968;2023-02-28T02:58:27;8.87;;;5.67;;
9974;SDS011;5028;50.974;4.968;2023-02-28T03:01:06;8.23;;;5.77;;
9974;SDS011;5028;50.974;4.968;2023-02-28T03:03:36;6.70;;;5.57;;
9974;SDS011;5028;50.974;4.968;2023-02-28T03:06:28;7.50;;;5.93;;
9974;SDS011;5028;50.974;4.968;2023-02-28T03:08:57;8.50;;;6.13;;
9974;SDS011;5028;50.974;4.968;2023-02-28T03:11:34;11.53;;;6.13;;
9974;SDS011;5028;50.974;4.968;2023-02-28T03:14:08;7.43;;;6.63;;
9974;SDS011;5028;50.974;4.968;2023-02-28T03:17:06;9.80;;;6.87;;
9974;SDS011;5028;50.974;4.968;2023-02-28T03:19:45;10.47;;;6.80;;
9974;SDS011;5028;50.974;4.968;2023-02-28T03:22:35;10.47;;;7.00;;
9974;SDS011;5028;50.974;4.968;2023-02-28T03:25:17;11.50;;;7.00;;
9974;SDS011;5028;50.974;4.968;2023-02-28T03:27:59;10.37;;;6.83;;
9974;SDS011;5028;50.974;4.968;2023-02-28T03:30:35;11.03;;;8.20;;
9974;SDS011;5028;50.974;4.968;2023-02-28T03:33:17;11.97;;;7.30;;
9974;SDS011;5028;50.974;4.968;2023-02-28T03:35:50;9.03;;;6.77;;
9974;SDS011;5028;50.974;4.968;2023-02-28T03:38:31;8.70;;;7.10;;
9974;SDS011;5028;50.974;4.968;2023-02-28T03:41:05;9.70;;;6.93;;
9974;SDS011;5028;50.974;4.968;2023-02-28T03:43:48;11.70;;;7.93;;
9974;SDS011;5028;50.974;4.968;2023-02-28T03:46:27;9.07;;;7.43;;
9974;SDS011;5028;50.974;4.968;2023-02-28T03:49:07;11.10;;;7.90;;
9974;SDS011;5028;50.974;4.968;2023-02-28T03:51:42;9.77;;;7.80;;
9974;SDS011;5028;50.974;4.968;2023-02-28T03:54:22;12.57;;;8.17;;
9974;SDS011;5028;50.974;4.968;2023-02-28T03:56:56;9.87;;;7.93;;
9974;SDS011;5028;50.974;4.968;2023-02-28T03:59:37;12.33;;;8.37;;
9974;SDS011;5028;50.974;4.968;2023-02-28T04:02:11;10.23;;;7.93;;
9974;SDS011;5028;50.974;4.968;2023-02-28T04:04:46;11.53;;;7.90;;
9974;SDS011;5028;50.974;4.968;2023-02-28T04:07:28;13.23;;;8.23;;
9974;SDS011;5028;50.974;4.968;2023-02-28T04:10:07;12.33;;;8.23;;
9974;SDS011;5028;50.974;4.968;2023-02-28T04:12:36;12.73;;;8.40;;
9974;SDS011;5028;50.974;4.968;2023-02-28T04:15:12;11.07;;;8.40;;
9974;SDS011;5028;50.974;4.968;2023-02-28T04:17:42;13.13;;;8.67;;
9974;SDS011;5028;50.974;4.968;2023-02-28T04:20:17;12.40;;;8.23;;
9974;SDS011;5028;50.974;4.968;2023-02-28T04:22:46;11.07;;;8.03;;
9974;SDS011;5028;50.974;4.968;2023-02-28T04:25:23;11.20;;;9.10;;
9974;SDS011;5028;50.974;4.968;2023-02-28T04:27:51;11.90;;;8.30;;
9974;SDS011;5028;50.974;4.968;2023-02-28T04:30:26;12.50;;;7.83;;
9974;SDS011;5028;50.974;4.968;2023-02-28T04:32:56;12.57;;;7.90;;
9974;SDS011;5028;50.974;4.968;2023-02-28T04:35:31;9.97;;;7.90;;
9974;SDS011;5028;50.974;4.968;2023-02-28T04:38:00;12.77;;;8.27;;
9974;SDS011;5028;50.974;4.968;2023-02-28T04:40:36;12.37;;;8.37;;
9974;SDS011;5028;50.974;4.968;2023-02-28T04:43:05;10.43;;;7.33;;
9974;SDS011;5028;50.974;4.968;2023-02-28T04:45:40;12.17;;;8.10;;
9974;SDS011;5028;50.974;4.968;2023-02-28T04:48:09;12.40;;;8.10;;
9974;SDS011;5028;50.974;4.968;2023-02-28T04:50:47;12.53;;;7.90;;
9974;SDS011;5028;50.974;4.968;2023-02-28T04:53:15;11.53;;;8.07;;
9974;SDS011;5028;50.974;4.968;2023-02-28T04:55:52;11.17;;;8.40;;
9974;SDS011;5028;50.974;4.968;2023-02-28T04:58:21;10.40;;;7.90;;
9974;SDS011;5028;50.974;4.968;2023-02-28T05:01:01;10.50;;;8.27;;
9974;SDS011;5028;50.974;4.968;2023-02-28T05:03:30;12.00;;;8.40;;
9974;SDS011;5028;50.974;4.968;2023-02-28T05:06:05;10.60;;;7.80;;
9974;SDS011;5028;50.974;4.968;2023-02-28T05:08:40;14.70;;;9.10;;
9974;SDS011;5028;50.974;4.968;2023-02-28T05:11:17;14.20;;;8.87;;
9974;SDS011;5028;50.974;4.968;2023-02-28T05:13:47;15.53;;;9.33;;
9974;SDS011;5028;50.974;4.968;2023-02-28T05:16:23;15.23;;;9.57;;
9974;SDS011;5028;50.974;4.968;2023-02-28T05:18:52;13.17;;;9.93;;
9974;SDS011;5028;50.974;4.968;2023-02-28T05:21:28;13.27;;;9.10;;
9974;SDS011;5028;50.974;4.968;2023-02-28T05:23:59;13.93;;;8.40;;
9974;SDS011;5028;50.974;4.968;2023-02-28T05:26:37;13.60;;;9.40;;
9974;SDS011;5028;50.974;4.968;2023-02-28T05:29:07;12.90;;;9.67;;
9974;SDS011;5028;50.974;4.968;2023-02-28T05:31:43;13.03;;;9.63;;
9974;SDS011;5028;50.974;4.968;2023-02-28T05:34:11;13.70;;;10.43;;
9974;SDS011;5028;50.974;4.968;2023-02-28T05:36:48;13.33;;;10.77;;
9974;SDS011;5028;50.974;4.968;2023-02-28T05:39:17;11.73;;;10.37;;
9974;SDS011;5028;50.974;4.968;2023-02-28T05:41:54;11.77;;;9.70;;
9974;SDS011;5028;50.974;4.968;2023-02-28T05:44:22;13.60;;;9.73;;
9974;SDS011;5028;50.974;4.968;2023-02-28T05:46:58;18.23;;;9.43;;
9974;SDS011;5028;50.974;4.968;2023-02-28T05:49:27;9.67;;;8.20;;
9974;SDS011;5028;50.974;4.968;2023-02-28T05:52:02;10.23;;;7.77;;
9974;SDS011;5028;50.974;4.968;2023-02-28T05:54:31;10.97;;;8.30;;
9974;SDS011;5028;50.974;4.968;2023-02-28T05:57:08;10.60;;;7.77;;
9974;SDS011;5028;50.974;4.968;2023-02-28T05:59:49;11.87;;;7.97;;
9974;SDS011;5028;50.974;4.968;2023-02-28T06:02:24;10.20;;;7.70;;
9974;SDS011;5028;50.974;4.968;2023-02-28T06:04:52;10.37;;;8.47;;
9974;SDS011;5028;50.974;4.968;2023-02-28T06:07:35;11.37;;;7.87;;
9974;SDS011;5028;50.974;4.968;2023-02-28T06:10:04;9.60;;;7.23;;
9974;SDS011;5028;50.974;4.968;2023-02-28T06:12:41;10.50;;;7.63;;
9974;SDS011;5028;50.974;4.968;2023-02-28T06:15:11;11.37;;;8.63;;
9974;SDS011;5028;50.974;4.968;2023-02-28T06:17:48;11.30;;;8.17;;
9974;SDS011;5028;50.974;4.968;2023-02-28T06:20:16;10.17;;;8.00;;
9974;SDS011;5028;50.974;4.968;2023-02-28T06:22:51;10.50;;;7.80;;
9974;SDS011;5028;50.974;4.968;2023-02-28T06:25:20;10.33;;;7.10;;
9974;SDS011;5028;50.974;4.968;2023-02-28T06:27:58;8.77;;;7.27;;
9974;SDS011;5028;50.974;4.968;2023-02-28T06:30:27;11.23;;;6.80;;
9974;SDS011;5028;50.974;4.968;2023-02-28T06:33:04;9.97;;;6.30;;
9974;SDS011;5028;50.974;4.968;2023-02-28T06:35:33;9.83;;;5.83;;
9974;SDS011;5028;50.974;4.968;2023-02-28T06:38:08;9.27;;;6.43;;
9974;SDS011;5028;50.974;4.968;2023-02-28T06:40:39;7.83;;;6.20;;
9974;SDS011;5028;50.974;4.968;2023-02-28T06:43:16;8.43;;;6.73;;
9974;SDS011;5028;50.974;4.968;2023-02-28T06:45:44;10.27;;;6.93;;
9974;SDS011;5028;50.974;4.968;2023-02-28T06:48:20;10.07;;;6.73;;
9974;SDS011;5028;50.974;4.968;2023-02-28T06:50:49;9.60;;;7.07;;
9974;SDS011;5028;50.974;4.968;2023-02-28T06:53:24;9.70;;;6.73;;
9974;SDS011;5028;50.974;4.968;2023-02-28T06:55:53;15.07;;;7.40;;
9974;SDS011;5028;50.974;4.968;2023-02-28T06:58:30;8.80;;;7.20;;
9974;SDS011;5028;50.974;4.968;2023-02-28T07:00:58;8.40;;;6.67;;
9974;SDS011;5028;50.974;4.968;2023-02-28T07:03:34;9.70;;;7.60;;
9974;SDS011;5028;50.974;4.968;2023-02-28T07:06:04;10.27;;;6.87;;
9974;SDS011;5028;50.974;4.968;2023-02-28T07:08:46;7.43;;;6.60;;
9974;SDS011;5028;50.974;4.968;2023-02-28T07:11:15;11.37;;;7.30;;
9974;SDS011;5028;50.974;4.968;2023-02-28T07:13:52;9.23;;;6.93;;
9974;SDS011;5028;50.974;4.968;2023-02-28T07:16:27;10.43;;;7.40;;
9974;SDS011;5028;50.974;4.968;2023-02-28T07:18:56;10.60;;;6.97;;
9974;SDS011;5028;50.974;4.968;2023-02-28T07:21:31;9.73;;;7.33;;
9974;SDS011;5028;50.974;4.968;2023-02-28T07:24:00;11.77;;;6.30;;
9974;SDS011;5028;50.974;4.968;2023-02-28T07:26:35;10.57;;;7.20;;
9974;SDS011;5028;50.974;4.968;2023-02-28T07:29:07;9.23;;;7.20;;
9974;SDS011;5028;50.974;4.968;2023-02-28T07:31:42;8.47;;;6.83;;
9974;SDS011;5028;50.974;4.968;2023-02-28T07:34:11;7.80;;;6.80;;
9974;SDS011;5028;50.974;4.968;2023-02-28T07:36:46;11.63;;;7.37;;
9974;SDS011;5028;50.974;4.968;2023-02-28T07:39:15;8.87;;;6.80;;
9974;SDS011;5028;50.974;4.968;2023-02-28T07:41:50;9.93;;;6.43;;
9974;SDS011;5028;50.974;4.968;2023-02-28T07:44:20;10.20;;;6.90;;
9974;SDS011;5028;50.974;4.968;2023-02-28T07:46:56;7.30;;;6.13;;
9974;SDS011;5028;50.974;4.968;2023-02-28T07:49:26;7.93;;;5.90;;
9974;SDS011;5028;50.974;4.968;2023-02-28T07:52:01;7.10;;;6.17;;
9974;SDS011;5028;50.974;4.968;2023-02-28T07:54:30;7.33;;;6.30;;
9974;SDS011;5028;50.974;4.968;2023-02-28T07:57:05;7.50;;;5.53;;
9974;SDS011;5028;50.974;4.968;2023-02-28T07:59:35;7.10;;;6.07;;
9974;SDS011;5028;50.974;4.968;2023-02-28T08:02:11;8.93;;;5.40;;
9974;SDS011;5028;50.974;4.968;2023-02-28T08:04:48;11.63;;;5.40;;
9974;SDS011;5028;50.974;4.968;2023-02-28T08:07:23;7.03;;;5.13;;
9974;SDS011;5028;50.974;4.968;2023-02-28T08:09:59;9.00;;;5.03;;
9974;SDS011;5028;50.974;4.968;2023-02-28T08:12:34;7.13;;;4.47;;
9974;SDS011;5028;50.974;4.968;2023-02-28T08:15:06;7.77;;;4.20;;
9974;SDS011;5028;50.974;4.968;2023-02-28T08:17:42;6.23;;;4.30;;
9974;SDS011;5028;50.974;4.968;2023-02-28T08:20:11;4.50;;;3.77;;
9974;SDS011;5028;50.974;4.968;2023-02-28T08:22:46;5.03;;;3.43;;
9974;SDS011;5028;50.974;4.968;2023-02-28T08:25:14;5.10;;;3.60;;
9974;SDS011;5028;50.974;4.968;2023-02-28T08:27:50;4.50;;;3.50;;
9974;SDS011;5028;50.974;4.968;2023-02-28T08:30:21;4.57;;;3.37;;
9974;SDS011;5028;50.974;4.968;2023-02-28T08:32:56;5.80;;;4.03;;
9974;SDS011;5028;50.974;4.968;2023-02-28T08:35:25;5.23;;;3.47;;
9974;SDS011;5028;50.974;4.968;2023-02-28T08:38:00;4.03;;;3.23;;
9974;SDS011;5028;50.974;4.968;2023-02-28T08:40:29;4.67;;;2.93;;
9974;SDS011;5028;50.974;4.968;2023-02-28T08:43:04;5.13;;;3.53;;
9974;SDS011;5028;50.974;4.968;2023-02-28T08:45:35;5.33;;;3.27;;
9974;SDS011;5028;50.974;4.968;2023-02-28T08:48:10;3.80;;;3.17;;
9974;SDS011;5028;50.974;4.968;2023-02-28T08:50:40;4.37;;;3.17;;
9974;SDS011;5028;50.974;4.968;2023-02-28T08:53:31;5.10;;;2.80;;
9974;SDS011;5028;50.974;4.968;2023-02-28T08:56:01;5.40;;;3.40;;
9974;SDS011;5028;50.974;4.968;2023-02-28T08:58:38;3.83;;;3.17;;
9974;SDS011;5028;50.974;4.968;2023-02-28T09:01:10;4.17;;;3.40;;
9974;SDS011;5028;50.974;4.968;2023-02-28T09:03:46;4.30;;;3.30;;
9974;SDS011;5028;50.974;4.968;2023-02-28T09:06:23;4.30;;;3.27;;
9974;SDS011;5028;50.974;4.968;2023-02-28T09:09:00;4.27;;;3.17;;
9974;SDS011;5028;50.974;4.968;2023-02-28T09:11:30;3.90;;;2.50;;
9974;SDS011;5028;50.974;4.968;2023-02-28T09:14:05;4.83;;;3.20;;
9974;SDS011;5028;50.974;4.968;2023-02-28T09:16:36;3.60;;;3.30;;
9974;SDS011;5028;50.974;4.968;2023-02-28T09:19:11;2.93;;;2.43;;
9974;SDS011;5028;50.974;4.968;2023-02-28T09:21:40;4.13;;;3.10;;
9974;SDS011;5028;50.974;4.968;2023-02-28T09:24:15;3.47;;;2.63;;
9974;SDS011;5028;50.974;4.968;2023-02-28T09:26:44;3.53;;;2.80;;
9974;SDS011;5028;50.974;4.968;2023-02-28T09:29:29;4.03;;;3.10;;
9974;SDS011;5028;50.974;4.968;2023-02-28T09:31:59;4.77;;;3.10;;
9974;SDS011;5028;50.974;4.968;2023-02-28T09:34:34;3.13;;;2.60;;
9974;SDS011;5028;50.974;4.968;2023-02-28T09:37:04;4.00;;;2.50;;
9974;SDS011;5028;50.974;4.968;2023-02-28T09:39:39;3.83;;;2.80;;
9974;SDS011;5028;50.974;4.968;2023-02-28T09:42:11;2.93;;;2.60;;
9974;SDS011;5028;50.974;4.968;2023-02-28T09:44:54;2.97;;;2.43;;
9974;SDS011;5028;50.974;4.968;2023-02-28T09:47:29;2.53;;;2.30;;
9974;SDS011;5028;50.974;4.968;2023-02-28T09:50:19;2.67;;;2.27;;
9974;SDS011;5028;50.974;4.968;2023-02-28T09:52:55;2.90;;;2.40;;
9974;SDS011;5028;50.974;4.968;2023-02-28T09:55:33;2.87;;;2.20;;
9974;SDS011;5028;50.974;4.968;2023-02-28T09:58:14;2.57;;;2.00;;
9974;SDS011;5028;50.974;4.968;2023-02-28T10:00:56;2.50;;;2.00;;
9974;SDS011;5028;50.974;4.968;2023-02-28T10:03:30;2.83;;;2.20;;
9974;SDS011;5028;50.974;4.968;2023-02-28T10:06:11;3.53;;;2.00;;
9974;SDS011;5028;50.974;4.968;2023-02-28T10:08:53;2.90;;;2.00;;
9974;SDS011;5028;50.974;4.968;2023-02-28T10:11:34;2.67;;;2.20;;
9974;SDS011;5028;50.974;4.968;2023-02-28T10:14:13;2.50;;;1.60;;
9974;SDS011;5028;50.974;4.968;2023-02-28T10:16:45;2.93;;;2.10;;
9974;SDS011;5028;50.974;4.968;2023-02-28T10:19:27;3.47;;;2.20;;
9974;SDS011;5028;50.974;4.968;2023-02-28T10:22:01;2.90;;;2.13;;
9974;SDS011;5028;50.974;4.968;2023-02-28T10:24:44;3.03;;;2.00;;
9974;SDS011;5028;50.974;4.968;2023-02-28T10:27:15;4.03;;;2.30;;
9974;SDS011;5028;50.974;4.968;2023-02-28T10:29:52;3.30;;;2.23;;
9974;SDS011;5028;50.974;4.968;2023-02-28T10:32:23;10.10;;;2.00;;
9974;SDS011;5028;50.974;4.968;2023-02-28T10:35:06;4.10;;;2.17;;
9974;SDS011;5028;50.974;4.968;2023-02-28T10:37:44;2.53;;;1.93;;
9974;SDS011;5028;50.974;4.968;2023-02-28T10:40:30;3.27;;;2.20;;
9974;SDS011;5028;50.974;4.968;2023-02-28T10:43:02;2.93;;;1.90;;
9974;SDS011;5028;50.974;4.968;2023-02-28T10:45:38;2.50;;;1.87;;
9974;SDS011;5028;50.974;4.968;2023-02-28T10:48:26;2.23;;;1.70;;
9974;SDS011;5028;50.974;4.968;2023-02-28T10:51:06;2.80;;;1.53;;
9974;SDS011;5028;50.974;4.968;2023-02-28T10:53:39;3.40;;;1.80;;
9974;SDS011;5028;50.974;4.968;2023-02-28T10:56:27;1.67;;;1.57;;
9974;SDS011;5028;50.974;4.968;2023-02-28T10:58:58;1.43;;;1.33;;
9974;SDS011;5028;50.974;4.968;2023-02-28T11:01:35;2.60;;;1.60;;
9974;SDS011;5028;50.974;4.968;2023-02-28T11:04:19;4.03;;;1.57;;
9974;SDS011;5028;50.974;4.968;2023-02-28T11:07:21;1.93;;;1.67;;
9974;SDS011;5028;50.974;4.968;2023-02-28T11:09:56;1.60;;;1.50;;
9974;SDS011;5028;50.974;4.968;2023-02-28T11:12:34;1.93;;;1.70;;
9974;SDS011;5028;50.974;4.968;2023-02-28T11:15:20;2.20;;;1.60;;
9974;SDS011;5028;50.974;4.968;2023-02-28T11:17:59;4.03;;;1.80;;
9974;SDS011;5028;50.974;4.968;2023-02-28T11:20:30;2.30;;;1.70;;
9974;SDS011;5028;50.974;4.968;2023-02-28T11:23:11;4.53;;;1.80;;
9974;SDS011;5028;50.974;4.968;2023-02-28T11:25:46;2.63;;;1.70;;
9974;SDS011;5028;50.974;4.968;2023-02-28T11:28:24;1.93;;;1.70;;
9974;SDS011;5028;50.974;4.968;2023-02-28T11:31:00;1.77;;;1.60;;
9974;SDS011;5028;50.974;4.968;2023-02-28T11:33:41;1.70;;;1.60;;
9974;SDS011;5028;50.974;4.968;2023-02-28T11:36:12;3.17;;;1.93;;
9974;SDS011;5028;50.974;4.968;2023-02-28T11:38:54;1.93;;;1.80;;
9974;SDS011;5028;50.974;4.968;2023-02-28T11:41:34;5.27;;;1.80;;
9974;SDS011;5028;50.974;4.968;2023-02-28T11:44:21;2.20;;;1.70;;
9974;SDS011;5028;50.974;4.968;2023-02-28T11:47:02;2.57;;;1.70;;
9974;SDS011;5028;50.974;4.968;2023-02-28T11:49:44;2.20;;;1.77;;
9974;SDS011;5028;50.974;4.968;2023-02-28T11:52:20;2.57;;;1.63;;
9974;SDS011;5028;50.974;4.968;2023-02-28T11:55:05;5.17;;;1.87;;
9974;SDS011;5028;50.974;4.968;2023-02-28T11:57:55;2.03;;;1.93;;
9974;SDS011;5028;50.974;4.968;2023-02-28T12:00:57;2.60;;;1.50;;
9974;SDS011;5028;50.974;4.968;2023-02-28T12:03:50;2.30;;;1.70;;
9974;SDS011;5028;50.974;4.968;2023-02-28T12:06:40;4.63;;;1.60;;
9974;SDS011;5028;50.974;4.968;2023-02-28T12:09:42;2.60;;;1.60;;
9974;SDS011;5028;50.974;4.968;2023-02-28T12:12:28;2.40;;;1.80;;
9974;SDS011;5028;50.974;4.968;2023-02-28T12:15:31;3.20;;;1.73;;
9974;SDS011;5028;50.974;4.968;2023-02-28T12:21:24;2.30;;;1.83;;
9974;SDS011;5028;50.974;4.968;2023-02-28T12:24:10;3.00;;;2.00;;
9974;SDS011;5028;50.974;4.968;2023-02-28T12:27:11;3.60;;;1.70;;
9974;SDS011;5028;50.974;4.968;2023-02-28T12:29:47;2.37;;;1.83;;
9974;SDS011;5028;50.974;4.968;2023-02-28T12:32:27;2.53;;;1.60;;
9974;SDS011;5028;50.974;4.968;2023-02-28T12:35:01;5.63;;;1.90;;
9974;SDS011;5028;50.974;4.968;2023-02-28T12:37:41;3.20;;;1.70;;
9974;SDS011;5028;50.974;4.968;2023-02-28T12:40:15;1.83;;;1.70;;
9974;SDS011;5028;50.974;4.968;2023-02-28T12:42:56;2.23;;;1.73;;
9974;SDS011;5028;50.974;4.968;2023-02-28T12:45:31;1.57;;;1.47;;
9974;SDS011;5028;50.974;4.968;2023-02-28T12:48:18;2.13;;;1.80;;
9974;SDS011;5028;50.974;4.968;2023-02-28T12:50:51;3.70;;;1.77;;
9974;SDS011;5028;50.974;4.968;2023-02-28T12:53:31;2.07;;;1.70;;
9974;SDS011;5028;50.974;4.968;2023-02-28T12:56:08;5.87;;;1.80;;
9974;SDS011;5028;50.974;4.968;2023-02-28T12:58:51;6.77;;;1.83;;
9974;SDS011;5028;50.974;4.968;2023-02-28T13:01:47;3.27;;;1.50;;
9974;SDS011;5028;50.974;4.968;2023-02-28T13:04:51;3.23;;;1.40;;
9974;SDS011;5028;50.974;4.968;2023-02-28T13:10:50;2.00;;;1.80;;
9974;SDS011;5028;50.974;4.968;2023-02-28T13:13:32;2.23;;;1.67;;
9974;SDS011;5028;50.974;4.968;2023-02-28T13:16:08;3.00;;;1.90;;
9974;SDS011;5028;50.974;4.968;2023-02-28T13:18:42;2.77;;;1.80;;
9974;SDS011;5028;50.974;4.968;2023-02-28T13:21:23;2.03;;;1.60;;
9974;SDS011;5028;50.974;4.968;2023-02-28T13:23:58;2.07;;;1.70;;
9974;SDS011;5028;50.974;4.968;2023-02-28T13:29:38;2.97;;;2.00;;
9974;SDS011;5028;50.974;4.968;2023-02-28T13:44:12;4.87;;;2.00;;
9974;SDS011;5028;50.974;4.968;2023-02-28T13:52:56;2.30;;;2.10;;
9974;SDS011;5028;50.974;4.968;2023-02-28T13:55:51;2.30;;;2.10;;
9974;SDS011;5028;50.974;4.968;2023-02-28T13:58:39;2.10;;;1.90;;
9974;SDS011;5028;50.974;4.968;2023-02-28T14:01:15;2.33;;;1.97;;
9974;SDS011;5028;50.974;4.968;2023-02-28T14:04:08;2.13;;;1.90;;
9974;SDS011;5028;50.974;4.968;2023-02-28T14:07:15;2.23;;;1.83;;
9974;SDS011;5028;50.974;4.968;2023-02-28T14:10:02;2.50;;;2.23;;
9974;SDS011;5028;50.974;4.968;2023-02-28T14:12:54;2.53;;;2.33;;
9974;SDS011;5028;50.974;4.968;2023-02-28T14:18:25;3.33;;;2.03;;
9974;SDS011;5028;50.974;4.968;2023-02-28T14:21:09;2.23;;;1.70;;
9974;SDS011;5028;50.974;4.968;2023-02-28T14:23:46;2.30;;;2.10;;
9974;SDS011;5028;50.974;4.968;2023-02-28T14:29:56;2.60;;;2.00;;
9974;SDS011;5028;50.974;4.968;2023-02-28T14:33:01;3.27;;;2.17;;
9974;SDS011;5028;50.974;4.968;2023-02-28T14:36:03;2.70;;;2.13;;
9974;SDS011;5028;50.974;4.968;2023-02-28T14:38:42;3.87;;;2.07;;
9974;SDS011;5028;50.974;4.968;2023-02-28T14:41:16;3.33;;;2.10;;
9974;SDS011;5028;50.974;4.968;2023-02-28T14:43:58;2.30;;;2.10;;
9974;SDS011;5028;50.974;4.968;2023-02-28T14:46:30;3.27;;;2.20;;
9974;SDS011;5028;50.974;4.968;2023-02-28T14:49:13;3.50;;;2.07;;
9974;SDS011;5028;50.974;4.968;2023-02-28T14:52:01;2.30;;;2.10;;
9974;SDS011;5028;50.974;4.968;2023-02-28T14:54:43;3.43;;;2.00;;
9974;SDS011;5028;50.974;4.968;2023-02-28T14:57:20;2.47;;;2.10;;
9974;SDS011;5028;50.974;4.968;2023-02-28T15:00:00;3.97;;;2.20;;
9974;SDS011;5028;50.974;4.968;2023-02-28T15:02:39;2.80;;;2.50;;
9974;SDS011;5028;50.974;4.968;2023-02-28T15:08:12;2.90;;;2.00;;
9974;SDS011;5028;50.974;4.968;2023-02-28T15:10:53;2.53;;;2.20;;
9974;SDS011;5028;50.974;4.968;2023-02-28T15:13:22;4.30;;;2.20;;
9974;SDS011;5028;50.974;4.968;2023-02-28T15:16:01;3.07;;;2.30;;
9974;SDS011;5028;50.974;4.968;2023-02-28T15:18:36;3.03;;;2.20;;
9974;SDS011;5028;50.974;4.968;2023-02-28T15:21:18;3.00;;;2.13;;
9974;SDS011;5028;50.974;4.968;2023-02-28T15:23:50;2.37;;;2.13;;
9974;SDS011;5028;50.974;4.968;2023-02-28T15:26:30;4.37;;;2.23;;
9974;SDS011;5028;50.974;4.968;2023-02-28T15:29:08;5.30;;;2.53;;
9974;SDS011;5028;50.974;4.968;2023-02-28T15:31:43;2.03;;;1.83;;
9974;SDS011;5028;50.974;4.968;2023-02-28T15:34:28;3.03;;;2.17;;
9974;SDS011;5028;50.974;4.968;2023-02-28T15:40:05;2.43;;;2.00;;
9974;SDS011;5028;50.974;4.968;2023-02-28T15:42:41;4.47;;;2.20;;
9974;SDS011;5028;50.974;4.968;2023-02-28T15:45:27;4.77;;;2.20;;
9974;SDS011;5028;50.974;4.968;2023-02-28T15:48:01;2.40;;;2.20;;
9974;SDS011;5028;50.974;4.968;2023-02-28T15:50:41;2.47;;;1.90;;
9974;SDS011;5028;50.974;4.968;2023-02-28T15:53:14;3.97;;;2.10;;
9974;SDS011;5028;50.974;4.968;2023-02-28T15:55:54;2.40;;;2.00;;
9974;SDS011;5028;50.974;4.968;2023-02-28T15:58:24;3.00;;;2.07;;
9974;SDS011;5028;50.974;4.968;2023-02-28T16:01:04;3.63;;;1.90;;
9974;SDS011;5028;50.974;4.968;2023-02-28T16:03:38;2.50;;;1.90;;
9974;SDS011;5028;50.974;4.968;2023-02-28T16:06:32;3.13;;;2.20;;
9974;SDS011;5028;50.974;4.968;2023-02-28T16:09:17;2.23;;;1.87;;
9974;SDS011;5028;50.974;4.968;2023-02-28T16:11:53;3.57;;;2.30;;
9974;SDS011;5028;50.974;4.968;2023-02-28T16:14:24;3.00;;;2.27;;
9974;SDS011;5028;50.974;4.968;2023-02-28T16:17:03;3.87;;;2.10;;
9974;SDS011;5028;50.974;4.968;2023-02-28T16:19:35;3.90;;;2.23;;
9974;SDS011;5028;50.974;4.968;2023-02-28T16:22:11;2.70;;;1.80;;
9974;SDS011;5028;50.974;4.968;2023-02-28T16:24:40;2.40;;;2.20;;
9974;SDS011;5028;50.974;4.968;2023-02-28T16:27:16;3.93;;;1.93;;
9974;SDS011;5028;50.974;4.968;2023-02-28T16:29:48;3.03;;;2.70;;
9974;SDS011;5028;50.974;4.968;2023-02-28T16:32:23;3.73;;;2.40;;
9974;SDS011;5028;50.974;4.968;2023-02-28T16:34:51;4.57;;;2.80;;
9974;SDS011;5028;50.974;4.968;2023-02-28T16:37:28;3.20;;;2.90;;
9974;SDS011;5028;50.974;4.968;2023-02-28T16:39:57;2.43;;;2.23;;
9974;SDS011;5028;50.974;4.968;2023-02-28T16:42:31;3.50;;;2.67;;
9974;SDS011;5028;50.974;4.968;2023-02-28T16:45:00;3.17;;;2.57;;
9974;SDS011;5028;50.974;4.968;2023-02-28T16:47:35;2.30;;;2.10;;
9974;SDS011;5028;50.974;4.968;2023-02-28T16:50:08;3.17;;;2.33;;
9974;SDS011;5028;50.974;4.968;2023-02-28T16:52:48;3.07;;;2.27;;
9974;SDS011;5028;50.974;4.968;2023-02-28T16:55:18;2.93;;;2.60;;
9974;SDS011;5028;50.974;4.968;2023-02-28T16:57:54;4.90;;;2.70;;
9974;SDS011;5028;50.974;4.968;2023-02-28T17:00:24;3.40;;;2.30;;